createdAt,value
2019-06-07T00:00:38.830Z,97.00
2019-06-07T00:02:53.028Z,96.40
2019-06-07T00:05:22.390Z,96.80
2019-06-07T00:07:51.813Z,96.50
2019-06-07T00:10:36.110Z,96.40
2019-06-07T00:12:52.381Z,96.20
2019-06-07T00:15:28.454Z,96.10
2019-06-07T00:17:52.939Z,96.00
2019-06-07T00:20:23.767Z,96.10
2019-06-07T00:22:53.383Z,96.30
2019-06-07T00:25:24.515Z,96.00
2019-06-07T00:27:54.254Z,95.80
2019-06-07T00:30:42.391Z,95.90
2019-06-07T00:32:54.886Z,96.10
2019-06-07T00:35:24.349Z,96.00
2019-06-07T00:37:53.845Z,96.00
2019-06-07T00:40:31.384Z,95.70
2019-06-07T00:42:54.350Z,95.80
2019-06-07T00:45:24.700Z,95.50
2019-06-07T00:47:54.379Z,95.50
2019-06-07T00:50:24.459Z,95.50
2019-06-07T00:55:27.557Z,95.60
2019-06-07T00:57:56.391Z,95.20
2019-06-07T01:00:26.191Z,95.50
2019-06-07T01:02:55.706Z,95.50
2019-06-07T01:05:31.000Z,95.20
2019-06-07T01:07:56.303Z,95.10
2019-06-07T01:10:51.798Z,94.90
2019-06-07T01:12:56.811Z,95.10
2019-06-07T01:15:28.991Z,94.90
2019-06-07T01:18:33.704Z,94.70
2019-06-07T01:20:29.000Z,94.80
2019-06-07T01:22:58.490Z,94.70
2019-06-07T01:25:28.955Z,95.00
2019-06-07T01:27:58.687Z,94.90
2019-06-07T01:30:29.459Z,94.90
2019-06-07T01:32:59.506Z,94.60
2019-06-07T01:35:29.962Z,94.30
2019-06-07T01:37:59.607Z,94.90
2019-06-07T01:40:32.297Z,94.70
2019-06-07T01:43:00.098Z,94.70
2019-06-07T01:45:31.152Z,94.70
2019-06-07T01:48:00.706Z,94.60
2019-06-07T01:50:30.083Z,94.70
2019-06-07T01:52:59.483Z,94.80
2019-06-07T01:55:32.379Z,94.50
2019-06-07T01:57:59.915Z,94.50
2019-06-07T02:00:32.558Z,94.50
2019-06-07T02:03:00.568Z,94.40
2019-06-07T02:05:30.971Z,94.50
2019-06-07T02:08:00.978Z,94.80
2019-06-07T02:10:33.418Z,94.50
2019-06-07T02:13:01.398Z,94.30
2019-06-07T02:15:36.215Z,94.50
2019-06-07T02:18:01.913Z,94.40
2019-06-07T02:20:34.218Z,94.10
2019-06-07T02:23:02.405Z,94.60
2019-06-07T02:25:42.940Z,95.10
2019-06-07T02:28:26.624Z,94.90
2019-06-07T02:30:47.231Z,94.60
2019-06-07T02:33:05.326Z,94.70
2019-06-07T02:35:40.720Z,94.50
2019-06-07T02:38:05.846Z,94.60
2019-06-07T02:40:37.492Z,94.70
2019-06-07T02:43:06.463Z,94.60
2019-06-07T02:45:42.702Z,94.30
2019-06-07T02:48:07.268Z,94.70
2019-06-07T02:50:38.715Z,94.10
2019-06-07T02:53:07.759Z,94.40
2019-06-07T02:56:26.294Z,94.80
2019-06-07T02:58:08.389Z,94.40
2019-06-07T03:01:06.017Z,94.20
2019-06-07T03:03:17.891Z,94.00
2019-06-07T03:05:47.694Z,93.90
2019-06-07T03:08:17.888Z,94.70
2019-06-07T03:10:49.910Z,94.40
2019-06-07T03:13:22.673Z,94.60
2019-06-07T03:15:53.800Z,94.10
2019-06-07T03:18:29.073Z,94.90
2019-06-07T03:21:05.242Z,94.80
2019-06-07T03:23:32.408Z,94.80
2019-06-07T03:26:06.567Z,94.80
2019-06-07T03:28:39.169Z,95.30
2019-06-07T03:31:07.093Z,94.80
2019-06-07T03:33:42.675Z,95.10
2019-06-07T03:36:23.458Z,95.10
2019-06-07T03:38:39.951Z,95.40
2019-06-07T03:41:09.458Z,95.50
2019-06-07T03:43:40.596Z,95.70
2019-06-07T03:46:10.022Z,95.90
2019-06-07T03:48:41.377Z,96.40
2019-06-07T03:51:23.964Z,96.80
2019-06-07T03:53:41.686Z,96.90
2019-06-07T03:56:11.934Z,96.30
2019-06-07T03:58:49.902Z,96.20
2019-06-07T04:01:13.442Z,96.50
2019-06-07T04:03:50.954Z,96.70
2019-06-07T04:06:13.931Z,96.60
2019-06-07T04:08:43.303Z,97.00
2019-06-07T04:11:12.663Z,96.90
2019-06-07T04:13:43.103Z,96.60
2019-06-07T04:16:12.726Z,97.00
2019-06-07T04:18:42.628Z,96.90
2019-06-07T04:21:12.135Z,96.70
2019-06-07T04:23:45.569Z,97.30
2019-06-07T04:26:12.643Z,97.40
2019-06-07T04:29:30.240Z,97.20
2019-06-07T04:31:13.279Z,97.20
2019-06-07T04:33:43.806Z,97.30
2019-06-07T04:36:14.263Z,97.30
2019-06-07T04:38:45.163Z,97.00
2019-06-07T04:41:14.724Z,97.30
2019-06-07T04:43:45.039Z,97.50
2019-06-07T04:46:15.950Z,97.70
2019-06-07T04:48:46.955Z,97.30
2019-06-07T04:51:17.716Z,97.40
2019-06-07T04:53:47.106Z,97.70
2019-06-07T04:56:16.537Z,97.80
2019-06-07T04:58:45.890Z,97.70
2019-06-07T05:01:26.841Z,98.20
2019-06-07T05:03:46.324Z,98.20
2019-06-07T05:06:15.699Z,98.60
2019-06-07T05:08:45.046Z,98.90
2019-06-07T05:11:14.434Z,98.60
2019-06-07T05:13:44.181Z,98.60
2019-06-07T05:16:13.751Z,98.30
2019-06-07T05:18:43.472Z,98.40
2019-06-07T05:21:12.942Z,98.30
2019-06-07T05:24:05.368Z,98.20
2019-06-07T05:26:13.387Z,98.30
2019-06-07T05:28:43.151Z,98.20
2019-06-07T05:31:12.984Z,97.90
2019-06-07T05:33:43.524Z,98.10
2019-06-07T05:36:13.135Z,97.50
2019-06-07T05:38:44.815Z,97.20
2019-06-07T05:41:13.557Z,97.00
2019-06-07T05:43:51.576Z,96.90
2019-06-07T05:46:14.050Z,97.10
2019-06-07T05:48:43.904Z,96.90
2019-06-07T05:51:13.656Z,97.00
2019-06-07T05:53:45.834Z,96.70
2019-06-07T05:56:14.993Z,96.70
2019-06-07T05:58:44.926Z,96.80
2019-06-07T06:01:42.152Z,96.70
2019-06-07T06:03:48.199Z,96.60
2019-06-07T06:06:16.427Z,95.90
2019-06-07T06:08:47.986Z,95.60
2019-06-07T06:11:17.074Z,95.70
2019-06-07T06:14:05.247Z,95.50
2019-06-07T06:16:17.561Z,95.30
2019-06-07T06:18:48.816Z,95.20
2019-06-07T06:21:20.290Z,95.10
2019-06-07T06:23:51.904Z,94.30
2019-06-07T06:26:20.396Z,94.00
2019-06-07T06:28:49.952Z,94.60
2019-06-07T06:31:19.682Z,94.10
2019-06-07T06:33:49.900Z,93.60
2019-06-07T06:36:19.908Z,93.30
2019-06-07T06:38:51.519Z,92.90
2019-06-07T06:41:21.064Z,94.40
2019-06-07T06:43:52.617Z,93.30
2019-06-07T06:46:38.128Z,92.40
2019-06-07T06:48:55.356Z,92.10
2019-06-07T06:51:24.064Z,91.70
2019-06-07T06:53:53.411Z,91.80
2019-06-07T06:56:24.012Z,90.70
2019-06-07T06:59:33.972Z,91.00
2019-06-07T07:01:24.407Z,91.80
2019-06-07T07:04:10.638Z,91.60
2019-06-07T07:06:27.083Z,91.20
2019-06-07T07:08:57.779Z,90.80
2019-06-07T07:11:27.144Z,91.10
2019-06-07T07:13:57.155Z,90.60
2019-06-07T07:16:26.723Z,91.10
2019-06-07T07:18:56.159Z,91.00
2019-06-07T07:21:25.521Z,90.40
2019-06-07T07:24:19.521Z,90.60
2019-06-07T07:26:26.131Z,90.80
2019-06-07T07:28:57.823Z,90.80
2019-06-07T07:31:26.804Z,90.50
2019-06-07T07:34:30.904Z,90.80
2019-06-07T07:36:38.569Z,91.30
2019-06-07T07:39:04.543Z,91.40
2019-06-07T07:41:29.561Z,91.70
2019-06-07T07:44:06.180Z,91.50
2019-06-07T07:46:30.498Z,91.60
2019-06-07T07:49:00.323Z,91.60
2019-06-07T07:51:29.845Z,91.80
2019-06-07T07:54:10.271Z,92.00
2019-06-07T07:56:30.387Z,91.50
2019-06-07T07:59:01.799Z,91.40
2019-06-07T08:01:30.871Z,91.80
2019-06-07T08:04:00.417Z,91.80
2019-06-07T08:06:29.794Z,91.90
2019-06-07T08:08:59.216Z,91.80
2019-06-07T08:11:28.775Z,91.40
2019-06-07T08:13:58.902Z,91.50
2019-06-07T08:16:28.515Z,90.70
2019-06-07T08:19:03.591Z,90.80
2019-06-07T08:21:29.344Z,91.30
2019-06-07T08:24:03.664Z,90.90
2019-06-07T08:26:29.753Z,91.20
2019-06-07T08:29:02.737Z,91.50
2019-06-07T08:31:30.163Z,91.30
2019-06-07T08:34:00.733Z,91.50
2019-06-07T08:36:41.405Z,91.70
2019-06-07T08:39:07.328Z,90.90
2019-06-07T08:41:32.650Z,91.30
2019-06-07T08:44:21.763Z,91.40
2019-06-07T08:46:33.170Z,91.10
2019-06-07T08:49:04.607Z,91.00
2019-06-07T08:51:33.578Z,91.30
2019-06-07T08:54:21.850Z,91.50
2019-06-07T08:56:34.192Z,91.20
2019-06-07T08:59:11.225Z,91.60
2019-06-07T09:01:34.919Z,91.30
2019-06-07T09:04:09.964Z,91.10
2019-06-07T09:09:08.437Z,91.30
2019-06-07T09:11:37.871Z,91.30
2019-06-07T09:14:09.182Z,91.10
2019-06-07T09:16:38.403Z,91.40
2019-06-07T09:19:10.835Z,91.30
2019-06-07T09:21:38.951Z,90.70
2019-06-07T09:24:11.419Z,90.90
2019-06-07T09:26:39.327Z,90.20
2019-06-07T09:29:11.812Z,89.50
2019-06-07T09:31:52.915Z,90.30
2019-06-07T09:34:14.923Z,90.10
2019-06-07T09:36:43.120Z,90.10
2019-06-07T09:39:12.902Z,90.20
2019-06-07T09:41:49.600Z,88.30
2019-06-07T09:44:24.058Z,89.60
2019-06-07T09:46:45.467Z,88.70
2019-06-07T09:49:28.957Z,88.00
2019-06-07T09:51:46.062Z,86.80
2019-06-07T09:55:02.201Z,86.10
2019-06-07T09:56:46.522Z,87.20
2019-06-07T09:59:15.890Z,86.50
2019-06-07T10:01:45.291Z,86.40
2019-06-07T10:04:28.542Z,84.70
2019-06-07T10:06:45.977Z,83.10
2019-06-07T10:11:46.533Z,83.40
2019-06-07T10:14:15.875Z,83.10
2019-06-07T10:16:46.816Z,81.80
2019-06-07T10:19:16.342Z,83.00
2019-06-07T10:21:45.774Z,80.80
2019-06-07T10:24:15.299Z,82.00
2019-06-07T10:26:44.782Z,80.80
2019-06-07T10:29:14.126Z,81.80
2019-06-07T10:31:43.507Z,79.90
2019-06-07T10:34:12.847Z,79.10
2019-06-07T10:36:42.553Z,80.80
2019-06-07T10:39:12.115Z,80.30
2019-06-07T10:41:41.484Z,78.90
2019-06-07T10:44:11.481Z,78.50
2019-06-07T10:46:48.033Z,77.40
2019-06-07T10:49:17.390Z,78.20
2019-06-07T10:51:46.839Z,77.00
2019-06-07T10:54:26.710Z,77.30
2019-06-07T10:56:47.455Z,77.20
2019-06-07T10:59:16.860Z,74.70
2019-06-07T11:01:46.283Z,74.80
2019-06-07T11:04:15.621Z,74.30
2019-06-07T11:06:45.089Z,76.40
2019-06-07T11:09:14.424Z,73.30
2019-06-07T11:11:43.859Z,73.00
2019-06-07T11:14:14.628Z,72.40
2019-06-07T11:16:44.336Z,74.10
2019-06-07T11:19:17.398Z,72.40
2019-06-07T11:21:44.950Z,70.00
2019-06-07T11:24:14.478Z,72.90
2019-06-07T11:26:44.022Z,73.40
2019-06-07T11:29:14.740Z,72.90
2019-06-07T11:31:47.412Z,69.90
2019-06-07T11:34:15.472Z,69.50
2019-06-07T11:36:44.848Z,68.90
2019-06-07T11:39:15.153Z,69.90
2019-06-07T11:41:44.775Z,68.50
2019-06-07T11:44:15.001Z,70.40
2019-06-07T11:46:44.595Z,69.30
2019-06-07T11:49:19.811Z,70.30
2019-06-07T11:51:45.086Z,69.00
2019-06-07T11:54:16.060Z,68.30
2019-06-07T11:56:45.684Z,67.90
2019-06-07T11:59:15.361Z,67.40
2019-06-07T12:01:44.864Z,66.90
2019-06-07T12:04:31.048Z,67.10
2019-06-07T12:06:45.314Z,67.50
2019-06-07T12:09:14.686Z,67.50
2019-06-07T12:11:44.199Z,65.50
2019-06-07T12:14:14.628Z,65.90
2019-06-07T12:16:44.510Z,66.30
2019-06-07T12:19:15.499Z,65.00
2019-06-07T12:21:44.991Z,64.50
2019-06-07T12:24:14.314Z,66.30
2019-06-07T12:26:43.766Z,66.30
2019-06-07T12:29:13.105Z,63.70
2019-06-07T12:31:42.617Z,67.90
2019-06-07T12:34:13.162Z,65.20
2019-06-07T12:36:42.802Z,65.10
2019-06-07T12:39:12.218Z,65.80
2019-06-07T12:41:42.229Z,64.20
2019-06-07T12:44:12.590Z,64.50
2019-06-07T12:46:42.275Z,63.20
2019-06-07T12:49:13.233Z,63.90
2019-06-07T12:51:43.551Z,64.40
2019-06-07T12:54:13.344Z,65.70
2019-06-07T12:56:42.767Z,64.50
2019-06-07T12:59:12.156Z,65.20
2019-06-07T13:01:41.496Z,65.40
2019-06-07T13:04:10.866Z,63.40
2019-06-07T13:06:40.213Z,63.10
2019-06-07T13:09:09.572Z,62.20
2019-06-07T13:11:38.920Z,62.60
2019-06-07T13:14:08.437Z,63.00
2019-06-07T13:16:37.797Z,61.50
2019-06-07T13:19:07.151Z,61.80
2019-06-07T13:21:36.565Z,61.40
2019-06-07T13:24:05.945Z,61.20
2019-06-07T13:26:35.364Z,62.00
2019-06-07T13:29:05.140Z,60.90
2019-06-07T13:31:34.491Z,62.60
2019-06-07T13:34:03.863Z,62.50
2019-06-07T13:36:33.215Z,59.90
2019-06-07T13:39:02.679Z,61.30
2019-06-07T13:41:41.888Z,62.10
2019-06-07T13:44:03.592Z,60.70
2019-06-07T13:46:32.965Z,61.90
2019-06-07T13:49:02.319Z,63.00
2019-06-07T13:51:33.342Z,63.10
2019-06-07T13:54:03.219Z,63.10
2019-06-07T13:56:32.695Z,63.40
2019-06-07T13:59:02.067Z,64.20
2019-06-07T14:01:31.439Z,64.80
2019-06-07T14:04:01.051Z,64.40
2019-06-07T14:06:30.422Z,62.80
2019-06-07T14:08:59.768Z,64.10
2019-06-07T14:11:30.048Z,64.20
2019-06-07T14:14:00.294Z,63.50
2019-06-07T14:16:30.434Z,62.40
2019-06-07T14:19:00.128Z,61.90
2019-06-07T14:21:30.770Z,63.40
2019-06-07T14:24:01.132Z,63.20
2019-06-07T14:26:32.590Z,62.90
2019-06-07T14:29:01.627Z,61.70
2019-06-07T14:31:32.255Z,63.80
2019-06-07T14:34:02.452Z,62.50
2019-06-07T14:36:33.299Z,63.20
2019-06-07T14:39:03.095Z,62.90
2019-06-07T14:41:33.681Z,63.40
2019-06-07T14:44:03.512Z,63.30
2019-06-07T14:46:34.292Z,66.30
2019-06-07T14:49:03.879Z,64.80
2019-06-07T14:51:33.810Z,63.30
2019-06-07T14:54:04.704Z,64.50
2019-06-07T14:56:35.301Z,64.70
2019-06-07T14:59:04.947Z,62.20
2019-06-07T15:01:35.608Z,63.30
2019-06-07T15:04:05.666Z,62.40
2019-06-07T15:06:35.041Z,64.10
2019-06-07T15:09:07.450Z,63.90
2019-06-07T15:11:36.900Z,65.10
2019-06-07T15:14:06.306Z,65.40
2019-06-07T15:16:35.874Z,65.80
2019-06-07T15:19:05.563Z,66.50
2019-06-07T15:21:35.149Z,68.20
2019-06-07T15:24:04.975Z,67.00
2019-06-07T15:26:34.626Z,65.80
2019-06-07T15:29:04.267Z,66.80
2019-06-07T15:31:52.968Z,66.80
2019-06-07T15:34:22.382Z,66.50
2019-06-07T15:36:51.830Z,67.10
2019-06-07T15:39:21.203Z,67.50
2019-06-07T15:41:50.663Z,67.50
2019-06-07T15:44:19.999Z,69.70
2019-06-07T15:46:49.370Z,71.80
2019-06-07T15:49:18.715Z,73.40
2019-06-07T15:51:48.275Z,76.60
2019-06-07T15:54:17.826Z,76.40
2019-06-07T15:56:47.179Z,75.90
2019-06-07T15:59:16.520Z,79.50
2019-06-07T16:01:46.100Z,76.40
2019-06-07T16:04:15.450Z,77.70
2019-06-07T16:06:44.821Z,79.30
2019-06-07T16:09:14.175Z,79.50
2019-06-07T16:11:44.123Z,79.00
2019-06-07T16:14:13.904Z,80.70
2019-06-07T16:16:43.482Z,83.20
2019-06-07T16:19:16.096Z,83.50
2019-06-07T16:21:45.531Z,81.90
2019-06-07T16:24:15.119Z,78.60
2019-06-07T16:26:44.704Z,78.50
2019-06-07T16:29:14.110Z,78.00
2019-06-07T16:31:43.478Z,80.30
2019-06-07T16:34:14.287Z,78.70
2019-06-07T16:36:44.539Z,82.70
2019-06-07T16:39:14.316Z,79.20
2019-06-07T16:41:44.869Z,79.20
2019-06-07T16:44:14.467Z,81.10
2019-06-07T16:46:45.070Z,79.50
2019-06-07T16:49:14.493Z,79.70
2019-06-07T16:51:45.253Z,82.20
2019-06-07T16:54:14.894Z,81.00
2019-06-07T16:56:48.954Z,82.00
2019-06-07T16:59:15.290Z,81.20
2019-06-07T17:01:45.321Z,82.30
2019-06-07T17:04:14.863Z,82.80
2019-06-07T17:06:44.388Z,81.90
2019-06-07T17:09:13.740Z,81.40
2019-06-07T17:11:44.249Z,82.30
2019-06-07T17:14:13.758Z,80.60
2019-06-07T17:16:43.571Z,76.40
2019-06-07T17:19:14.164Z,76.80
2019-06-07T17:21:43.593Z,76.90
2019-06-07T17:24:13.197Z,75.30
2019-06-07T17:26:43.429Z,76.20
2019-06-07T17:29:13.219Z,74.40
2019-06-07T17:31:44.610Z,74.70
2019-06-07T17:34:13.775Z,75.80
2019-06-07T17:36:44.791Z,83.20
2019-06-07T17:39:14.267Z,90.00
2019-06-07T17:41:54.789Z,88.60
2019-06-07T17:44:14.737Z,90.90
2019-06-07T17:46:45.569Z,91.50
2019-06-07T17:49:15.263Z,92.30
2019-06-07T17:51:45.878Z,92.00
2019-06-07T17:54:15.368Z,93.10
2019-06-07T17:56:46.203Z,93.60
2019-06-07T17:59:15.702Z,95.10
2019-06-07T18:02:06.950Z,95.00
2019-06-07T18:04:16.162Z,94.70
2019-06-07T18:06:47.330Z,94.80
2019-06-07T18:09:17.452Z,94.80
2019-06-07T18:11:47.901Z,95.50
2019-06-07T18:14:17.351Z,95.70
2019-06-07T18:16:46.780Z,96.40
2019-06-07T18:19:16.208Z,95.60
2019-06-07T18:21:46.950Z,95.60
2019-06-07T18:24:17.055Z,96.00
2019-06-07T18:26:46.499Z,95.70
2019-06-07T18:29:15.911Z,96.50
2019-06-07T18:31:46.637Z,96.20
2019-06-07T18:34:16.117Z,95.60
2019-06-07T18:36:46.862Z,94.60
2019-06-07T18:39:16.378Z,95.10
2019-06-07T18:41:46.933Z,95.00
2019-06-07T18:44:21.533Z,96.00
2019-06-07T18:46:48.128Z,96.40
2019-06-07T18:49:17.696Z,95.20
2019-06-07T18:51:49.643Z,95.70
2019-06-07T18:54:19.237Z,96.00
2019-06-07T18:56:48.808Z,95.50
2019-06-07T18:59:18.185Z,95.60
2019-06-07T19:01:47.527Z,96.70
2019-06-07T19:04:16.914Z,95.30
2019-06-07T19:06:46.313Z,94.20
2019-06-07T19:09:15.744Z,95.30
2019-06-07T19:11:45.095Z,95.10
2019-06-07T19:14:14.510Z,94.60
2019-06-07T19:16:43.943Z,94.90
2019-06-07T19:19:13.316Z,95.10
2019-06-07T19:21:42.672Z,95.80
2019-06-07T19:24:12.194Z,96.40
2019-06-07T19:26:41.542Z,96.20
2019-06-07T19:29:10.907Z,94.70
2019-06-07T19:31:40.275Z,96.60
2019-06-07T19:34:09.628Z,96.10
2019-06-07T19:36:48.311Z,96.10
2019-06-07T19:39:10.146Z,95.60
2019-06-07T19:41:39.491Z,95.60
2019-06-07T19:44:08.931Z,95.30
2019-06-07T19:46:38.294Z,94.80
2019-06-07T19:49:07.658Z,95.00
2019-06-07T19:51:37.124Z,96.20
2019-06-07T19:54:06.519Z,97.40
2019-06-07T19:56:35.935Z,96.50
2019-06-07T19:59:05.415Z,96.00
2019-06-07T20:01:34.778Z,96.20
2019-06-07T20:04:04.410Z,96.30
2019-06-07T20:06:33.986Z,96.50
2019-06-07T20:09:04.932Z,96.30
2019-06-07T20:11:34.504Z,97.80
2019-06-07T20:14:05.082Z,97.00
2019-06-07T20:16:34.716Z,96.60
2019-06-07T20:19:05.647Z,98.30
2019-06-07T20:21:35.186Z,95.80
2019-06-07T20:24:22.485Z,96.90
2019-06-07T20:26:35.738Z,96.20
2019-06-07T20:29:05.729Z,97.50
2019-06-07T20:31:35.179Z,97.40
2019-06-07T20:34:05.795Z,97.10
2019-06-07T20:36:35.421Z,96.60
2019-06-07T20:39:08.190Z,96.50
2019-06-07T20:41:37.715Z,96.30
2019-06-07T20:44:08.122Z,96.00
2019-06-07T20:46:37.680Z,96.00
2019-06-07T20:49:08.302Z,96.60
2019-06-07T20:51:37.967Z,96.70
2019-06-07T20:54:07.542Z,96.90
2019-06-07T20:56:37.171Z,96.80
2019-06-07T20:59:06.819Z,97.00
2019-06-07T21:01:36.607Z,97.20
2019-06-07T21:04:07.199Z,96.70
2019-06-07T21:06:36.893Z,97.30
2019-06-07T21:09:07.680Z,97.30
2019-06-07T21:11:37.206Z,97.40
2019-06-07T21:14:06.638Z,96.70
2019-06-07T21:16:36.027Z,96.80
2019-06-07T21:19:06.308Z,96.70
2019-06-07T21:21:36.024Z,97.90
2019-06-07T21:24:06.689Z,97.00
2019-06-07T21:26:36.414Z,97.30
2019-06-07T21:29:06.987Z,97.80
2019-06-07T21:31:36.675Z,97.80
2019-06-07T21:34:10.219Z,97.30
2019-06-07T21:36:37.522Z,97.90
2019-06-07T21:39:08.328Z,97.70
2019-06-07T21:41:37.856Z,97.50
2019-06-07T21:44:08.244Z,97.50
2019-06-07T21:46:37.739Z,97.00
2019-06-07T21:49:08.365Z,97.50
2019-06-07T21:51:37.931Z,97.40
2019-06-07T21:54:11.237Z,96.90
2019-06-07T21:56:38.439Z,97.60
2019-06-07T21:59:09.238Z,97.30
2019-06-07T22:01:38.978Z,97.90
2019-06-07T22:04:09.502Z,97.80
2019-06-07T22:06:39.058Z,97.20
2019-06-07T22:09:09.958Z,96.80
2019-06-07T22:11:39.492Z,97.40
2019-06-07T22:14:10.318Z,96.80
2019-06-07T22:16:40.024Z,97.30
2019-06-07T22:19:10.673Z,97.20
2019-06-07T22:21:40.220Z,97.00
2019-06-07T22:24:10.900Z,98.10
2019-06-07T22:26:40.653Z,96.70
2019-06-07T22:29:10.384Z,97.40
2019-06-07T22:31:39.890Z,96.60
2019-06-07T22:34:09.291Z,96.90
2019-06-07T22:36:38.680Z,97.50
2019-06-07T22:39:09.542Z,96.40
2019-06-07T22:41:39.157Z,96.90
2019-06-07T22:44:08.726Z,96.40
2019-06-07T22:46:38.138Z,96.30
2019-06-07T22:49:07.596Z,96.10
2019-06-07T22:51:37.031Z,96.20
2019-06-07T22:54:07.570Z,95.90
2019-06-07T22:56:41.327Z,96.00
2019-06-07T22:59:14.087Z,96.10
2019-06-07T23:01:41.735Z,97.20
2019-06-07T23:04:11.086Z,97.10
2019-06-07T23:06:40.516Z,95.60
2019-06-07T23:09:10.841Z,95.80
2019-06-07T23:11:52.482Z,95.90
2019-06-07T23:14:21.859Z,95.10
2019-06-07T23:16:55.586Z,95.20
2019-06-07T23:19:22.294Z,95.90
2019-06-07T23:21:51.639Z,96.80
2019-06-07T23:24:21.527Z,96.50
2019-06-07T23:26:50.931Z,95.70
2019-06-07T23:29:20.707Z,96.10
2019-06-07T23:31:50.179Z,96.70
2019-06-07T23:34:20.878Z,96.60
2019-06-07T23:36:50.358Z,96.40
2019-06-07T23:39:20.860Z,95.90
2019-06-07T23:41:50.791Z,96.10
2019-06-07T23:44:21.332Z,96.00
2019-06-07T23:46:51.063Z,96.50
2019-06-07T23:49:22.397Z,95.60
2019-06-07T23:51:51.484Z,96.40
2019-06-07T23:54:22.127Z,95.60
2019-06-07T23:56:51.638Z,96.00
2019-06-07T23:59:22.298Z,95.70
